createdAt,value
2017-02-24T00:00:33.851Z,932.47
2017-02-24T00:01:33.837Z,932.46
2017-02-24T00:02:33.824Z,932.49
2017-02-24T00:03:33.810Z,932.42
2017-02-24T00:04:33.799Z,932.49
2017-02-24T00:05:33.786Z,932.46
2017-02-24T00:06:33.771Z,932.51
2017-02-24T00:07:33.758Z,932.47
2017-02-24T00:08:33.745Z,932.52
2017-02-24T00:09:33.731Z,932.54
2017-02-24T00:10:33.719Z,932.5
2017-02-24T00:11:33.705Z,932.53
2017-02-24T00:12:33.692Z,932.43
2017-02-24T00:13:33.678Z,932.69
2017-02-24T00:14:33.665Z,932.52
2017-02-24T00:15:33.653Z,932.3
2017-02-24T00:16:33.638Z,932.52
2017-02-24T00:17:33.625Z,932.61
2017-02-24T00:18:33.613Z,932.57
2017-02-24T00:19:33.599Z,932.54
2017-02-24T00:20:33.586Z,932.68
2017-02-24T00:21:33.573Z,932.63
2017-02-24T00:22:33.559Z,932.48
2017-02-24T00:23:33.546Z,932.65
2017-02-24T00:24:33.532Z,932.61
2017-02-24T00:25:33.520Z,932.59
2017-02-24T00:26:33.506Z,932.67
2017-02-24T00:27:33.493Z,932.69
2017-02-24T00:28:33.482Z,932.53
2017-02-24T00:29:33.466Z,932.64
2017-02-24T00:30:33.453Z,932.61
2017-02-24T00:31:33.439Z,932.66
2017-02-24T00:32:33.425Z,932.62
2017-02-24T00:33:33.412Z,932.6
2017-02-24T00:34:33.399Z,932.65
2017-02-24T00:35:33.386Z,932.65
2017-02-24T00:36:33.372Z,932.55
2017-02-24T00:37:33.359Z,932.71
2017-02-24T00:38:33.347Z,932.66
2017-02-24T00:39:33.331Z,932.7
2017-02-24T00:40:33.319Z,932.63
2017-02-24T00:41:33.306Z,932.61
2017-02-24T00:42:33.292Z,932.51
2017-02-24T00:43:33.278Z,932.53
2017-02-24T00:44:33.265Z,932.58
2017-02-24T00:45:33.253Z,932.55
2017-02-24T00:46:33.237Z,932.56
2017-02-24T00:47:33.225Z,932.63
2017-02-24T00:48:33.212Z,932.28
2017-02-24T00:49:33.202Z,932.63
2017-02-24T00:50:33.186Z,932.53
2017-02-24T00:51:33.172Z,932.76
2017-02-24T00:52:33.160Z,932.74
2017-02-24T00:53:33.145Z,932.59
2017-02-24T00:54:33.132Z,932.61
2017-02-24T00:55:33.119Z,932.65
2017-02-24T00:56:33.106Z,932.68
2017-02-24T00:57:33.091Z,932.71
2017-02-24T00:58:33.080Z,932.62
2017-02-24T00:59:33.065Z,932.72
2017-02-24T01:00:33.053Z,932.69
2017-02-24T01:01:33.040Z,932.7
2017-02-24T01:02:33.026Z,932.71
2017-02-24T01:03:33.013Z,932.65
2017-02-24T01:04:32.998Z,932.7
2017-02-24T01:05:32.985Z,932.55
2017-02-24T01:06:32.972Z,932.63
2017-02-24T01:07:32.960Z,932.58
2017-02-24T01:08:32.944Z,932.7
2017-02-24T01:09:32.932Z,932.5
2017-02-24T01:10:32.918Z,932.54
2017-02-24T01:11:32.906Z,932.44
2017-02-24T01:12:32.892Z,932.55
2017-02-24T01:13:32.880Z,932.56
2017-02-24T01:14:32.866Z,932.57
2017-02-24T01:15:32.852Z,932.52
2017-02-24T01:16:32.839Z,932.56
2017-02-24T01:17:32.826Z,932.63
2017-02-24T01:18:32.814Z,932.54
2017-02-24T01:19:32.798Z,932.55
2017-02-24T01:20:32.785Z,932.34
2017-02-24T01:21:32.772Z,932.58
2017-02-24T01:22:32.759Z,932.55
2017-02-24T01:23:32.744Z,932.58
2017-02-24T01:24:32.731Z,932.65
2017-02-24T01:25:32.718Z,932.54
2017-02-24T01:26:32.703Z,932.55
2017-02-24T01:27:32.692Z,932.58
2017-02-24T01:28:32.677Z,932.57
2017-02-24T01:29:32.663Z,932.51
2017-02-24T01:30:32.651Z,932.4
2017-02-24T01:31:32.638Z,932.52
2017-02-24T01:32:32.624Z,932.5
2017-02-24T01:33:32.610Z,932.69
2017-02-24T01:34:32.595Z,932.4
2017-02-24T01:35:32.581Z,932.43
2017-02-24T01:36:32.569Z,932.58
2017-02-24T01:37:32.553Z,932.63
2017-02-24T01:38:32.555Z,932.58
2017-02-24T01:39:32.528Z,932.43
2017-02-24T01:40:32.513Z,932.69
2017-02-24T01:41:32.501Z,932.48
2017-02-24T01:42:32.487Z,932.55
2017-02-24T01:43:32.472Z,932.95
2017-02-24T01:44:32.458Z,932.53
2017-02-24T01:45:32.446Z,932.68
2017-02-24T01:46:32.432Z,932.74
2017-02-24T01:47:32.421Z,932.64
2017-02-24T01:48:32.404Z,932.74
2017-02-24T01:49:32.392Z,932.68
2017-02-24T01:50:32.377Z,932.75
2017-02-24T01:51:32.364Z,932.69
2017-02-24T01:52:32.350Z,932.66
2017-02-24T01:53:32.337Z,932.52
2017-02-24T01:54:32.324Z,932.6
2017-02-24T01:55:32.309Z,932.62
2017-02-24T01:56:32.297Z,932.73
2017-02-24T01:57:32.282Z,932.76
2017-02-24T01:58:32.270Z,932.51
2017-02-24T01:59:32.257Z,932.66
2017-02-24T02:00:32.242Z,932.5
2017-02-24T02:01:32.229Z,932.53
2017-02-24T02:02:32.216Z,932.58
2017-02-24T02:03:32.201Z,932.61
2017-02-24T02:04:32.187Z,932.67
2017-02-24T02:05:32.174Z,932.77
2017-02-24T02:06:32.160Z,932.55
2017-02-24T02:07:32.147Z,932.64
2017-02-24T02:08:32.134Z,932.63
2017-02-24T02:09:32.120Z,932.51
2017-02-24T02:10:32.108Z,932.77
2017-02-24T02:11:32.093Z,932.57
2017-02-24T02:12:32.080Z,932.54
2017-02-24T02:13:32.067Z,932.58
2017-02-24T02:14:32.053Z,932.62
2017-02-24T02:15:32.039Z,932.59
2017-02-24T02:16:32.055Z,932.65
2017-02-24T02:17:32.011Z,932.66
2017-02-24T02:18:31.998Z,932.7
2017-02-24T02:19:31.986Z,932.65
2017-02-24T02:20:31.972Z,932.81
2017-02-24T02:21:31.958Z,932.48
2017-02-24T02:22:31.944Z,932.84
2017-02-24T02:23:31.931Z,932.77
2017-02-24T02:24:31.918Z,932.91
2017-02-24T02:25:31.903Z,932.65
2017-02-24T02:26:31.890Z,932.76
2017-02-24T02:27:31.877Z,932.75
2017-02-24T02:28:31.861Z,932.68
2017-02-24T02:29:31.848Z,932.72
2017-02-24T02:30:31.834Z,932.86
2017-02-24T02:31:31.820Z,932.61
2017-02-24T02:32:31.807Z,932.66
2017-02-24T02:33:31.793Z,932.67
2017-02-24T02:34:31.779Z,932.51
2017-02-24T02:35:31.766Z,932.53
2017-02-24T02:36:34.786Z,932.7
2017-02-24T02:37:31.810Z,932.66
2017-02-24T02:38:31.726Z,932.67
2017-02-24T02:39:31.712Z,932.56
2017-02-24T02:40:31.697Z,932.84
2017-02-24T02:41:31.684Z,932.91
2017-02-24T02:42:31.671Z,932.71
2017-02-24T02:43:31.657Z,932.7
2017-02-24T02:44:31.645Z,932.67
2017-02-24T02:45:31.629Z,932.85
2017-02-24T02:46:31.616Z,932.8
2017-02-24T02:47:31.602Z,932.78
2017-02-24T02:48:31.589Z,932.8
2017-02-24T02:49:31.576Z,932.82
2017-02-24T02:50:31.562Z,932.71
2017-02-24T02:51:31.547Z,932.9
2017-02-24T02:52:31.533Z,932.83
2017-02-24T02:53:31.520Z,932.64
2017-02-24T02:54:31.507Z,933.13
2017-02-24T02:55:31.492Z,932.83
2017-02-24T02:56:31.479Z,932.78
2017-02-24T02:57:31.463Z,932.82
2017-02-24T02:58:31.451Z,932.91
2017-02-24T02:59:31.439Z,933.09
2017-02-24T03:00:31.425Z,933.08
2017-02-24T03:01:31.410Z,933
2017-02-24T03:02:31.396Z,932.88
2017-02-24T03:03:31.383Z,932.87
2017-02-24T03:04:31.368Z,933.01
2017-02-24T03:05:31.352Z,932.89
2017-02-24T03:06:31.340Z,932.99
2017-02-24T03:07:31.327Z,933.06
2017-02-24T03:08:31.312Z,933.25
2017-02-24T03:09:31.297Z,933.25
2017-02-24T03:10:31.284Z,933.16
2017-02-24T03:11:31.271Z,933.15
2017-02-24T03:12:31.256Z,933.13
2017-02-24T03:13:31.441Z,933.23
2017-02-24T03:14:31.228Z,933.01
2017-02-24T03:15:31.215Z,933.21
2017-02-24T03:16:31.200Z,933.21
2017-02-24T03:17:31.186Z,933.29
2017-02-24T03:18:31.172Z,933.23
2017-02-24T03:19:31.158Z,933.46
2017-02-24T03:20:31.144Z,933.3
2017-02-24T03:21:31.131Z,933.3
2017-02-24T03:22:31.116Z,933.3
2017-02-24T03:23:31.101Z,933.43
2017-02-24T03:24:31.087Z,933.71
2017-02-24T03:25:31.074Z,933.48
2017-02-24T03:26:31.062Z,933.55
2017-02-24T03:27:31.045Z,933.74
2017-02-24T03:28:31.033Z,933.57
2017-02-24T03:29:31.019Z,933.88
2017-02-24T03:30:31.004Z,933.92
2017-02-24T03:31:30.990Z,933.95
2017-02-24T03:32:30.977Z,934.37
2017-02-24T03:33:30.963Z,934.12
2017-02-24T03:34:30.947Z,934.05
2017-02-24T03:35:30.932Z,934.11
2017-02-24T03:36:30.920Z,933.91
2017-02-24T03:37:30.905Z,934.21
2017-02-24T03:38:30.891Z,934.19
2017-02-24T03:39:30.876Z,934.35
2017-02-24T03:40:30.863Z,934.07
2017-02-24T03:41:30.847Z,934.46
2017-02-24T03:42:30.834Z,934.37
2017-02-24T03:43:30.819Z,934.49
2017-02-24T03:44:30.805Z,934.59
2017-02-24T03:45:30.790Z,934.55
2017-02-24T03:46:30.777Z,934.47
2017-02-24T03:47:30.763Z,934.45
2017-02-24T03:48:30.748Z,934.74
2017-02-24T03:49:30.733Z,934.76
2017-02-24T03:50:30.720Z,934.59
2017-02-24T03:51:30.705Z,934.7
2017-02-24T03:52:30.690Z,934.66
2017-02-24T03:53:30.677Z,934.8
2017-02-24T03:54:30.662Z,934.67
2017-02-24T03:55:30.648Z,934.81
2017-02-24T03:56:30.634Z,934.86
2017-02-24T03:57:30.619Z,935.04
2017-02-24T03:58:30.606Z,935.07
2017-02-24T03:59:30.591Z,935.13
2017-02-24T04:00:30.575Z,935.25
2017-02-24T04:01:30.561Z,935.45
2017-02-24T04:02:30.550Z,935.3
2017-02-24T04:03:30.534Z,935.21
2017-02-24T04:04:30.519Z,935.28
2017-02-24T04:05:30.504Z,935.56
2017-02-24T04:06:30.490Z,935.51
2017-02-24T04:07:30.476Z,935.67
2017-02-24T04:08:30.460Z,935.76
2017-02-24T04:09:30.447Z,935.63
2017-02-24T04:10:30.435Z,935.65
2017-02-24T04:11:30.417Z,935.69
2017-02-24T04:12:30.403Z,935.62
2017-02-24T04:13:30.390Z,935.82
2017-02-24T04:14:30.374Z,935.85
2017-02-24T04:15:30.361Z,935.93
2017-02-24T04:16:30.346Z,936.04
2017-02-24T04:17:30.332Z,935.94
2017-02-24T04:18:30.316Z,936.08
2017-02-24T04:19:30.302Z,935.97
2017-02-24T04:20:30.288Z,935.94
2017-02-24T04:21:30.274Z,936.07
2017-02-24T04:22:30.258Z,936.16
2017-02-24T04:23:30.245Z,936.14
2017-02-24T04:24:30.230Z,936.24
2017-02-24T04:25:30.215Z,936.25
2017-02-24T04:26:30.200Z,936.34
2017-02-24T04:27:30.186Z,936.36
2017-02-24T04:28:30.171Z,936.35
2017-02-24T04:29:30.156Z,936.4
2017-02-24T04:30:30.143Z,936.4
2017-02-24T04:31:30.127Z,936.51
2017-02-24T04:32:30.112Z,936.46
2017-02-24T04:33:30.096Z,936.5
2017-02-24T04:34:30.082Z,936.71
2017-02-24T04:35:30.068Z,936.64
2017-02-24T04:36:30.053Z,936.69
2017-02-24T04:37:30.038Z,936.74
2017-02-24T04:38:30.024Z,936.83
2017-02-24T04:39:30.008Z,936.9
2017-02-24T04:40:29.993Z,936.95
2017-02-24T04:41:29.978Z,937.07
2017-02-24T04:42:29.963Z,936.97
2017-02-24T04:43:29.948Z,937.15
2017-02-24T04:44:29.933Z,937.15
2017-02-24T04:45:29.919Z,937.11
2017-02-24T04:46:29.904Z,937.12
2017-02-24T04:47:29.887Z,937.16
2017-02-24T04:48:29.874Z,937.21
2017-02-24T04:49:29.858Z,937.28
2017-02-24T04:50:29.844Z,937.32
2017-02-24T04:51:29.828Z,937.41
2017-02-24T04:52:29.813Z,937.23
2017-02-24T04:53:29.798Z,937.37
2017-02-24T04:54:29.782Z,937.47
2017-02-24T04:55:29.769Z,937.56
2017-02-24T04:56:29.752Z,937.63
2017-02-24T04:57:29.739Z,937.55
2017-02-24T04:58:29.723Z,937.46
2017-02-24T04:59:29.708Z,937.66
2017-02-24T05:00:29.694Z,937.64
2017-02-24T05:01:29.680Z,937.69
2017-02-24T05:02:29.663Z,937.58
2017-02-24T05:03:29.648Z,937.61
2017-02-24T05:04:29.634Z,937.63
2017-02-24T05:05:29.616Z,937.72
2017-02-24T05:06:29.602Z,937.68
2017-02-24T05:07:29.586Z,937.74
2017-02-24T05:08:29.573Z,937.81
2017-02-24T05:09:29.556Z,937.71
2017-02-24T05:10:29.540Z,937.78
2017-02-24T05:11:29.525Z,937.87
2017-02-24T05:12:29.511Z,937.89
2017-02-24T05:13:29.496Z,937.88
2017-02-24T05:14:29.479Z,937.88
2017-02-24T05:15:29.464Z,937.93
2017-02-24T05:16:29.448Z,937.96
2017-02-24T05:17:29.433Z,937.99
2017-02-24T05:18:29.417Z,937.96
2017-02-24T05:19:29.403Z,938.06
2017-02-24T05:20:29.386Z,938.1
2017-02-24T05:21:29.371Z,938.1
2017-02-24T05:22:29.356Z,938
2017-02-24T05:23:29.341Z,938.14
2017-02-24T05:24:29.325Z,938.09
2017-02-24T05:25:29.309Z,938.13
2017-02-24T05:26:29.295Z,938.3
2017-02-24T05:27:29.278Z,938.35
2017-02-24T05:28:29.263Z,938.49
2017-02-24T05:29:29.250Z,938.45
2017-02-24T05:30:29.233Z,938.54
2017-02-24T05:31:29.217Z,938.54
2017-02-24T05:32:29.202Z,938.47
2017-02-24T05:33:29.187Z,938.54
2017-02-24T05:34:29.171Z,938.55
2017-02-24T05:35:29.155Z,938.55
2017-02-24T05:36:29.139Z,938.57
2017-02-24T05:37:29.125Z,938.7
2017-02-24T05:38:29.108Z,938.66
2017-02-24T05:39:29.094Z,938.77
2017-02-24T05:40:29.079Z,938.81
2017-02-24T05:41:29.063Z,938.69
2017-02-24T05:42:29.048Z,938.89
2017-02-24T05:43:29.032Z,938.82
2017-02-24T05:44:29.017Z,938.86
2017-02-24T05:45:29.003Z,938.88
2017-02-24T05:46:28.986Z,938.96
2017-02-24T05:47:28.971Z,939.04
2017-02-24T05:48:28.957Z,939.17
2017-02-24T05:49:28.942Z,939.08
2017-02-24T05:50:28.926Z,939.22
2017-02-24T05:51:28.910Z,939.3
2017-02-24T05:52:28.895Z,939.33
2017-02-24T05:53:28.879Z,939.42
2017-02-24T05:54:28.864Z,939.39
2017-02-24T05:55:28.849Z,939.43
2017-02-24T05:56:28.833Z,939.47
2017-02-24T05:57:28.818Z,939.43
2017-02-24T05:58:28.803Z,939.49
2017-02-24T05:59:28.788Z,939.61
2017-02-24T06:00:28.773Z,939.61
2017-02-24T06:01:28.756Z,939.58
2017-02-24T06:02:28.742Z,939.58
2017-02-24T06:03:28.725Z,939.59
2017-02-24T06:04:28.710Z,939.66
2017-02-24T06:05:28.695Z,939.65
2017-02-24T06:06:28.679Z,939.71
2017-02-24T06:07:28.664Z,939.66
2017-02-24T06:08:28.648Z,939.77
2017-02-24T06:09:28.633Z,939.79
2017-02-24T06:10:28.616Z,939.79
2017-02-24T06:11:28.602Z,939.92
2017-02-24T06:12:28.586Z,940.05
2017-02-24T06:13:28.570Z,939.79
2017-02-24T06:14:28.555Z,939.89
2017-02-24T06:15:28.538Z,939.99
2017-02-24T06:16:28.522Z,940.01
2017-02-24T06:17:28.507Z,940.06
2017-02-24T06:18:28.491Z,940.04
2017-02-24T06:19:28.476Z,940.02
2017-02-24T06:20:28.460Z,940.3
2017-02-24T06:21:28.444Z,940.22
2017-02-24T06:22:28.429Z,940.22
2017-02-24T06:23:28.413Z,940.21
2017-02-24T06:24:28.398Z,940.2
2017-02-24T06:25:28.381Z,940.26
2017-02-24T06:26:28.365Z,940.32
2017-02-24T06:27:28.350Z,940.24
2017-02-24T06:28:28.334Z,940.32
2017-02-24T06:29:28.342Z,940.34
2017-02-24T06:30:28.303Z,940.29
2017-02-24T06:31:28.287Z,940.37
2017-02-24T06:32:28.273Z,940.42
2017-02-24T06:33:28.256Z,940.48
2017-02-24T06:34:28.239Z,940.43
2017-02-24T06:35:28.225Z,940.53
2017-02-24T06:36:28.209Z,940.55
2017-02-24T06:37:28.193Z,940.6
2017-02-24T06:38:28.177Z,940.6
2017-02-24T06:39:28.162Z,940.58
2017-02-24T06:40:28.146Z,940.58
2017-02-24T06:41:28.130Z,940.73
2017-02-24T06:42:28.115Z,940.68
2017-02-24T06:43:28.098Z,940.71
2017-02-24T06:44:28.082Z,940.75
2017-02-24T06:45:28.069Z,940.79
2017-02-24T06:46:28.052Z,940.81
2017-02-24T06:47:28.037Z,940.83
2017-02-24T06:48:28.020Z,940.86
2017-02-24T06:49:28.004Z,940.73
2017-02-24T06:50:27.989Z,940.8
2017-02-24T06:51:27.973Z,940.81
2017-02-24T06:52:27.958Z,940.83
2017-02-24T06:53:27.943Z,940.84
2017-02-24T06:54:27.927Z,940.89
2017-02-24T06:55:27.911Z,940.94
2017-02-24T06:56:27.895Z,940.95
2017-02-24T06:57:27.881Z,941
2017-02-24T06:58:27.864Z,941
2017-02-24T06:59:27.847Z,941.04
2017-02-24T07:00:27.835Z,941.05
2017-02-24T07:01:27.818Z,940.95
2017-02-24T07:02:27.802Z,941.08
2017-02-24T07:03:27.786Z,941.07
2017-02-24T07:04:27.770Z,941.1
2017-02-24T07:05:27.756Z,941.12
2017-02-24T07:06:27.738Z,941.13
2017-02-24T07:07:27.722Z,941.09
2017-02-24T07:08:27.709Z,941.12
2017-02-24T07:09:27.693Z,941.18
2017-02-24T07:10:27.701Z,941.2
2017-02-24T07:11:27.661Z,941.2
2017-02-24T07:12:27.647Z,941.22
2017-02-24T07:13:27.630Z,941.25
2017-02-24T07:14:27.613Z,941.26
2017-02-24T07:15:27.599Z,941.32
2017-02-24T07:16:27.583Z,941.29
2017-02-24T07:17:27.566Z,941.34
2017-02-24T07:18:27.552Z,941.34
2017-02-24T07:19:27.536Z,941.33
2017-02-24T07:20:27.521Z,941.31
2017-02-24T07:21:27.505Z,941.34
2017-02-24T07:22:27.489Z,941.4
2017-02-24T07:23:27.475Z,941.4
2017-02-24T07:24:27.458Z,941.39
2017-02-24T07:25:27.442Z,941.43
2017-02-24T07:26:27.428Z,941.44
2017-02-24T07:27:27.412Z,941.44
2017-02-24T07:28:27.397Z,941.48
2017-02-24T07:29:27.380Z,941.47
2017-02-24T07:30:27.365Z,941.59
2017-02-24T07:31:27.350Z,941.6
2017-02-24T07:32:27.335Z,941.56
2017-02-24T07:33:27.320Z,941.56
2017-02-24T07:34:27.305Z,941.55
2017-02-24T07:35:27.287Z,941.56
2017-02-24T07:36:27.276Z,941.58
2017-02-24T07:37:27.258Z,941.58
2017-02-24T07:38:27.242Z,941.65
2017-02-24T07:39:27.226Z,941.64
2017-02-24T07:40:27.211Z,941.67
2017-02-24T07:41:27.195Z,941.64
2017-02-24T07:42:27.180Z,941.72
2017-02-24T07:43:27.164Z,941.71
2017-02-24T07:44:27.150Z,941.81
2017-02-24T07:45:27.134Z,941.78
2017-02-24T07:46:27.118Z,941.69
2017-02-24T07:47:27.104Z,941.75
2017-02-24T07:48:27.089Z,941.78
2017-02-24T07:49:27.073Z,941.79
2017-02-24T07:50:27.059Z,941.69
2017-02-24T07:51:27.042Z,941.74
2017-02-24T07:52:27.029Z,941.79
2017-02-24T07:53:27.014Z,941.83
2017-02-24T07:54:26.998Z,941.88
2017-02-24T07:55:26.983Z,941.76
2017-02-24T07:56:26.968Z,941.81
2017-02-24T07:57:26.952Z,941.82
2017-02-24T07:58:26.937Z,941.77
2017-02-24T07:59:26.922Z,941.86
2017-02-24T08:00:26.908Z,941.81
2017-02-24T08:01:26.892Z,941.75
2017-02-24T08:02:26.878Z,941.83
2017-02-24T08:03:26.863Z,941.87
2017-02-24T08:04:26.848Z,941.93
2017-02-24T08:05:26.832Z,942.03
2017-02-24T08:06:26.819Z,942.02
2017-02-24T08:07:26.804Z,941.96
2017-02-24T08:08:26.789Z,941.96
2017-02-24T08:09:26.773Z,942
2017-02-24T08:10:26.759Z,942.03
2017-02-24T08:11:26.744Z,942.03
2017-02-24T08:12:26.729Z,942.05
2017-02-24T08:13:26.715Z,942.14
2017-02-24T08:14:26.700Z,942.06
2017-02-24T08:15:26.684Z,942.19
2017-02-24T08:16:26.670Z,942.16
2017-02-24T08:17:26.656Z,942.21
2017-02-24T08:18:26.641Z,942.35
2017-02-24T08:19:26.625Z,942.38
2017-02-24T08:20:26.610Z,942.46
2017-02-24T08:21:26.596Z,942.61
2017-02-24T08:22:26.582Z,942.74
2017-02-24T08:23:26.566Z,943.01
2017-02-24T08:24:26.551Z,942.99
2017-02-24T08:25:26.535Z,942.99
2017-02-24T08:26:26.544Z,943
2017-02-24T08:27:26.504Z,943.03
2017-02-24T08:28:26.491Z,942.97
2017-02-24T08:29:26.476Z,943.02
2017-02-24T08:30:26.460Z,943.03
2017-02-24T08:31:26.444Z,943.04
2017-02-24T08:32:26.430Z,943.09
2017-02-24T08:33:26.415Z,943.08
2017-02-24T08:34:26.399Z,943.11
2017-02-24T08:35:26.383Z,943.06
2017-02-24T08:36:26.368Z,943.17
2017-02-24T08:37:26.350Z,943.12
2017-02-24T08:38:26.336Z,943.17
2017-02-24T08:39:26.320Z,943.11
2017-02-24T08:40:26.306Z,943.21
2017-02-24T08:41:26.289Z,943.23
2017-02-24T08:42:26.274Z,943.22
2017-02-24T08:43:26.259Z,943.24
2017-02-24T08:44:26.241Z,943.35
2017-02-24T08:45:26.226Z,943.29
2017-02-24T08:46:26.210Z,943.36
2017-02-24T08:47:26.195Z,943.35
2017-02-24T08:48:26.179Z,943.41
2017-02-24T08:49:26.164Z,943.47
2017-02-24T08:50:26.149Z,943.52
2017-02-24T08:51:26.132Z,943.43
2017-02-24T08:52:26.116Z,943.49
2017-02-24T08:53:26.101Z,943.58
2017-02-24T08:54:26.084Z,943.64
2017-02-24T08:55:26.069Z,943.57
2017-02-24T08:56:26.053Z,943.66
2017-02-24T08:57:26.038Z,943.71
2017-02-24T08:58:26.022Z,943.66
2017-02-24T08:59:26.006Z,943.78
2017-02-24T09:00:25.989Z,943.81
2017-02-24T09:01:25.973Z,943.77
2017-02-24T09:02:25.960Z,943.77
2017-02-24T09:03:25.943Z,943.87
2017-02-24T09:04:25.927Z,943.79
2017-02-24T09:05:25.911Z,943.86
2017-02-24T09:06:25.895Z,943.87
2017-02-24T09:07:25.881Z,943.88
2017-02-24T09:08:25.864Z,943.96
2017-02-24T09:09:25.851Z,943.96
2017-02-24T09:10:25.834Z,944.04
2017-02-24T09:11:25.820Z,943.94
2017-02-24T09:12:25.803Z,944.1
2017-02-24T09:13:25.788Z,944.1
2017-02-24T09:14:25.773Z,944.08
2017-02-24T09:15:25.758Z,944.12
2017-02-24T09:16:25.742Z,944.05
2017-02-24T09:17:25.727Z,944.12
2017-02-24T09:18:25.711Z,944.22
2017-02-24T09:19:25.698Z,944.21
2017-02-24T09:20:25.681Z,944.24
2017-02-24T09:21:25.666Z,944.24
2017-02-24T09:22:25.651Z,944.19
2017-02-24T09:23:25.636Z,944.25
2017-02-24T09:24:25.621Z,944.26
2017-02-24T09:25:25.606Z,944.26
2017-02-24T09:26:25.591Z,944.31
2017-02-24T09:27:25.577Z,944.25
2017-02-24T09:28:25.560Z,944.3
2017-02-24T09:29:25.546Z,944.4
2017-02-24T09:30:25.531Z,944.42
2017-02-24T09:31:25.515Z,944.32
2017-02-24T09:32:25.498Z,944.39
2017-02-24T09:33:25.484Z,944.31
2017-02-24T09:34:25.468Z,944.4
2017-02-24T09:35:25.455Z,944.36
2017-02-24T09:36:25.439Z,944.38
2017-02-24T09:37:25.424Z,944.35
2017-02-24T09:38:25.410Z,944.44
2017-02-24T09:39:25.394Z,944.49
2017-02-24T09:40:25.379Z,944.38
2017-02-24T09:41:25.364Z,944.38
2017-02-24T09:42:25.347Z,944.56
2017-02-24T09:43:25.331Z,944.46
2017-02-24T09:44:25.317Z,944.57
2017-02-24T09:45:25.304Z,944.5
2017-02-24T09:46:25.289Z,944.56
2017-02-24T09:47:25.271Z,944.36
2017-02-24T09:48:25.257Z,944.51
2017-02-24T09:49:25.242Z,944.51
2017-02-24T09:50:25.227Z,944.48
2017-02-24T09:51:25.211Z,944.48
2017-02-24T09:52:25.195Z,944.54
2017-02-24T09:53:25.180Z,944.6
2017-02-24T09:54:25.164Z,944.67
2017-02-24T09:55:25.150Z,944.67
2017-02-24T09:56:25.134Z,944.6
2017-02-24T09:57:25.120Z,944.6
2017-02-24T09:58:25.104Z,944.6
2017-02-24T09:59:25.088Z,944.6
2017-02-24T10:00:25.073Z,944.8
2017-02-24T10:01:25.057Z,944.66
2017-02-24T10:02:25.041Z,944.7
2017-02-24T10:03:25.028Z,944.7
2017-02-24T10:04:25.012Z,944.76
2017-02-24T10:05:24.998Z,944.71
2017-02-24T10:06:24.981Z,944.67
2017-02-24T10:07:24.966Z,944.76
2017-02-24T10:08:24.951Z,944.79
2017-02-24T10:09:24.935Z,944.75
2017-02-24T10:10:24.921Z,944.81
2017-02-24T10:11:24.906Z,944.85
2017-02-24T10:12:24.889Z,944.94
2017-02-24T10:13:24.874Z,944.83
2017-02-24T10:14:24.859Z,944.87
2017-02-24T10:15:24.844Z,944.97
2017-02-24T10:16:24.830Z,944.86
2017-02-24T10:17:24.813Z,944.83
2017-02-24T10:18:24.799Z,944.82
2017-02-24T10:19:24.783Z,944.84
2017-02-24T10:20:24.769Z,944.84
2017-02-24T10:21:24.754Z,944.92
2017-02-24T10:22:24.738Z,944.88
2017-02-24T10:23:24.723Z,945.01
2017-02-24T10:24:24.708Z,944.98
2017-02-24T10:25:24.692Z,944.98
2017-02-24T10:26:24.680Z,944.95
2017-02-24T10:27:24.664Z,944.95
2017-02-24T10:28:24.651Z,944.98
2017-02-24T10:29:24.634Z,944.98
2017-02-24T10:30:24.619Z,944.94
2017-02-24T10:31:24.604Z,944.96
2017-02-24T10:32:24.590Z,945.05
2017-02-24T10:33:24.573Z,944.94
2017-02-24T10:34:24.559Z,944.96
2017-02-24T10:35:24.543Z,944.97
2017-02-24T10:36:24.530Z,944.99
2017-02-24T10:37:24.514Z,945.08
2017-02-24T10:38:24.500Z,945.11
2017-02-24T10:39:24.485Z,945.03
2017-02-24T10:40:24.470Z,945.05
2017-02-24T10:41:24.455Z,945.07
2017-02-24T10:42:24.441Z,945.17
2017-02-24T10:43:24.425Z,945.04
2017-02-24T10:44:24.410Z,945.02
2017-02-24T10:45:24.396Z,945.08
2017-02-24T10:46:24.381Z,945.04
2017-02-24T10:47:24.365Z,945.1
2017-02-24T10:48:24.351Z,945.08
2017-02-24T10:49:24.335Z,945.14
2017-02-24T10:50:24.321Z,945.17
2017-02-24T10:51:24.309Z,945.12
2017-02-24T10:52:24.291Z,945.1
2017-02-24T10:53:24.277Z,945.12
2017-02-24T10:54:24.261Z,945.14
2017-02-24T10:55:24.247Z,945.17
2017-02-24T10:56:24.230Z,945.15
2017-02-24T10:57:24.216Z,945.2
2017-02-24T10:58:24.201Z,945.18
2017-02-24T10:59:24.188Z,945.13
2017-02-24T11:00:24.171Z,945.08
2017-02-24T11:01:24.157Z,945.14
2017-02-24T11:02:24.142Z,945.17
2017-02-24T11:03:24.127Z,945.23
2017-02-24T11:04:24.114Z,945.19
2017-02-24T11:05:24.098Z,945.21
2017-02-24T11:06:24.082Z,945.34
2017-02-24T11:07:24.067Z,945.23
2017-02-24T11:08:24.052Z,945.26
2017-02-24T11:09:24.038Z,945.19
2017-02-24T11:10:24.025Z,945.3
2017-02-24T11:11:24.010Z,945.32
2017-02-24T11:12:23.994Z,945.26
2017-02-24T11:13:23.980Z,945.23
2017-02-24T11:14:23.964Z,945.2
2017-02-24T11:15:23.950Z,945.18
2017-02-24T11:16:23.937Z,945.19
2017-02-24T11:17:23.923Z,945.23
2017-02-24T11:18:23.908Z,945.23
2017-02-24T11:19:23.895Z,945.3
2017-02-24T11:20:23.879Z,945.28
2017-02-24T11:21:23.866Z,945.3
2017-02-24T11:22:23.851Z,945.39
2017-02-24T11:23:23.839Z,945.31
2017-02-24T11:24:23.823Z,945.29
2017-02-24T11:25:23.808Z,945.35
2017-02-24T11:26:23.795Z,945.42
2017-02-24T11:27:23.781Z,945.43
2017-02-24T11:28:23.767Z,945.44
2017-02-24T11:29:23.753Z,945.46
2017-02-24T11:30:23.739Z,945.43
2017-02-24T11:31:23.725Z,945.45
2017-02-24T11:32:23.711Z,945.44
2017-02-24T11:33:23.697Z,945.4
2017-02-24T11:34:23.682Z,945.46
2017-02-24T11:35:23.668Z,945.45
2017-02-24T11:36:23.656Z,945.4
2017-02-24T11:37:23.641Z,945.37
2017-02-24T11:38:23.629Z,945.36
2017-02-24T11:39:23.613Z,945.35
2017-02-24T11:40:23.601Z,945.42
2017-02-24T11:41:23.587Z,945.43
2017-02-24T11:42:23.573Z,945.44
2017-02-24T11:43:23.561Z,945.41
2017-02-24T11:44:23.549Z,945.57
2017-02-24T11:45:23.534Z,945.47
2017-02-24T11:46:23.520Z,945.36
2017-02-24T11:47:23.506Z,945.36
2017-02-24T11:48:23.493Z,945.39
2017-02-24T11:49:23.479Z,945.53
2017-02-24T11:50:23.467Z,945.52
2017-02-24T11:51:23.452Z,945.5
2017-02-24T11:52:23.438Z,945.55
2017-02-24T11:53:23.426Z,945.68
2017-02-24T11:54:23.410Z,945.66
2017-02-24T11:55:23.397Z,945.67
2017-02-24T11:56:23.384Z,945.7
2017-02-24T11:57:23.370Z,945.7
2017-02-24T11:58:23.356Z,945.8
2017-02-24T11:59:23.342Z,945.72
2017-02-24T12:00:23.328Z,945.74
2017-02-24T12:01:23.316Z,945.81
2017-02-24T12:02:23.301Z,945.79
2017-02-24T12:03:23.286Z,945.84
2017-02-24T12:04:23.273Z,945.87
2017-02-24T12:05:23.258Z,945.88
2017-02-24T12:06:23.244Z,945.96
2017-02-24T12:07:23.230Z,945.91
2017-02-24T12:08:23.217Z,945.94
2017-02-24T12:09:23.202Z,946.05
2017-02-24T12:10:23.188Z,945.94
2017-02-24T12:11:23.174Z,945.97
2017-02-24T12:12:23.159Z,946.02
2017-02-24T12:13:23.145Z,946.01
2017-02-24T12:14:23.130Z,946.04
2017-02-24T12:15:23.117Z,946.05
2017-02-24T12:16:23.102Z,946.11
2017-02-24T12:17:23.089Z,946.05
2017-02-24T12:18:23.075Z,946.11
2017-02-24T12:19:23.059Z,946.07
2017-02-24T12:20:23.044Z,946.13
2017-02-24T12:21:23.031Z,946.19
2017-02-24T12:22:23.016Z,946.13
2017-02-24T12:23:23.001Z,946.15
2017-02-24T12:24:22.987Z,946.21
2017-02-24T12:25:22.972Z,946.19
2017-02-24T12:26:22.959Z,946.21
2017-02-24T12:27:22.943Z,946.24
2017-02-24T12:28:22.929Z,946.18
2017-02-24T12:29:22.915Z,946.22
2017-02-24T12:30:22.901Z,946.25
2017-02-24T12:31:22.885Z,946.27